Becker, MN

1:02 AM CST on December 28, 2014 (GMT -0600)
Buffalo | Change Station
CLOSE
Current Station
Airport
Location: Buffalo,
Elevation: 968 ft
Nearby Weather Stations

Elev 968 ft 45.16 °N, 93.85 °W | Updated 7 minutes ago

Overcast
Overcast
12 °F
Feels Like 5 °F
N
5
Wind Variable Wind from SSW

Today
High -- | Low -- °F
--% Chance of Precip.
Yesterday
High -- | Low -- °F
Precip. -- in
7:54 AM 4:39 PM
Waxing Crescent, 44% visible
Pressure 30.08 in
Visibility 10.0 miles
Clouds Overcast 8000 ft
Windchill 5 °F
Dew Point 9 °F
Humidity 85%
Rainfall 0.00 in
Snow Depth Not available.
UV 0 out of 12
Pollen .10 out of 12
Air Quality Not available.
Flu Activity Not available.
METAR KCFE 280655Z AUTO 20004KT 10SM OVC080 M11/M13 A3008 RMK AO2 T11091130

More Conditions Fewer Conditions

Pressure 30.08 in
Visibility 10.0 miles
Clouds Overcast 8000 ft
Windchill 5 °F
Dew Point 9 °F
Humidity 85%
Rainfall 0.00 in
Snow Depth Not available.
UV 0 out of 12
Pollen .10 out of 12
Air Quality Not available.
Flu Activity Not available.
METAR KCFE 280655Z AUTO 20004KT 10SM OVC080 M11/M13 A3008 RMK AO2 T11091130

More Conditions Fewer Conditions

10-Day Weather Forecast

Almanac

Astronomy

Dec. 28, 2014 Rise Set
Actual Time
Civil Twilight
Nautical Twilight
Astronomical Twilight
Moon
Length of Visible Light
Length of Day
Tomorrow will be .
, % of the Moon is Illuminated

Today's Extremes

State Highs State Lows

Community

WunderPhotos

Upload Photos

1,781,209 photos uploaded!

WunderBlogs® & News

Nearby

Air Quality

  Air Quality AQ Index Pollutant
Not available.

Snow Depth

Station Depth Elevation

Earthquake Activity

City Distance Mag. Time & Date
Minimum magnitude displayed is 2.5.

Coastal Water Temperatures

Place Temperature

Nearby Weather Stations